Main page
METAR-TAF:

METAR-TAF

Airports :

Brunei International Airport

Brunei, Brunei

latitude: 04-56N, longitude: 114-56E, elevation: 22 m

Current weather observation

The report was made 35 minutes ago, at 04:00 UTC
Wind 4 kt from the West/Southwest
Temperature 33°C
Humidity 67%
Pressure 1008 hPa
Visibility: 7000 m
Scattered clouds at a height of 1600 ft
Broken clouds at a height of 30000 ft

METAR: WBSB 160400Z 25004KT 7000 SCT016 BKN300 33/26 Q1008 NOSIG

Time: 12:35 (04:35 UTC)

Forecast

The report was made 5 hours and 35 minutes ago, at 23:00 UTC
Forecast valid from 16 at 00 UTC to 17 at 06 UTC
Wind 4 kt from the South/Southwest
Visibility: 7000 m
Few clouds at a height of 1500 ft
Becoming
from 16 at 04 UTC to 16 at 06 UTC
Wind 6 kt from the West/Northwest
Few clouds at a height of 1700 ft
Few clouds at a height of 1800 ft, Cumulonimbus.

TAF: WBSB 152300Z 1600/1706 20004KT 7000 FEW015 BECMG 1604/1606 30006KT FEW017 FEW018CB

Weather observations and forecasts of more than 4000 airports (METAR and TAF reports).

The available stations are represented by yellow and red dots on the map.

Hover mouse over dot to see the name of the station.

Then click to see weather observations and forecasts.

To change the map : click on the green buttons with a black cross to zoom in, on the green button with a dash to zoom out, or on the green arrows for adjacent maps.


METAR-TAF: